DAAGDAOB

Guest
Details From DAAG - Alger Houari Boumediene
To DAOB - BOU CHEKIF
Flight Number -
Tags generated
Created
Modified
Stats Distance 133 nm / 246 km
Max Altitude 16,600 ft / 5,060 m
Waypoints 3
Social Downloads 0
Likes 0
Share VATSIM

Download

Looking for another format? Having issues loading an existing format? Contact us
Advertisement - Login to hide

Notes

Basic altitude profile: - Ascent Rate: 2500ft/min - Ascent Speed: 250kts - Cruise Altitude: 35000ft - Cruise Speed: 420kts - Descent Rate: 1500ft/min - Descent Speed: 250kts Options: - Use NATs: yes - Use PACOTS: yes - Use low airways: yes - Use high airways: yes

Route

DAAG CHE DAOB

ID Type Via Altitude Latitude Longitude Leg Dist Tot Dist Heading (true) Name
O DAAG APT - 0 ft / 0 m 36.69752˚ 3.21308˚ - 0 nm - Alger Houari Boumediene
CHE NDB - 16,600 ft / 5,060 m 36.60139˚ 2.19333˚ 49 nm 49 nm 264° / 263° CHERCHELL NDB
O DAOB APT - 0 ft / 0 m 35.34114˚ 1.46315˚ 83 nm 133 nm 205° / 205° BOU CHEKIF

Altitude Profile

Advertisement - Login to hide

DAAG

Details ICAO DAAG (ALG)
Name Alger Houari Boumediene
Region Algeria
Timezone Africa/Algiers (UTC+1.0)
Stats Elevation 82 ft / 25 m (AMSL)
Location 36.697521° 3.213079°
Runways 2
Magnetic Variation 1.056° E

METAR

DAAG 110730Z 20007KT 160V240 9999 FEW020 BKN100 17/06 Q1004

Decode

TAF

TAF DAAG 110500Z 1106/1206 18010KT 9999 FEW020 SCT200 BECMG 1108/1112 20020KT PROB40 TEMPO 1110/116 20020G30KT BECMG 1117/1121 32010KT FEW023CB PROB40 TEMPO 1120/1206 32015G25KT 5000 -TSRA

Decode

Departure Runways

ID Width Length Bearing (true) Bearing (mag) Surface Threshold Offset Overrun Length
05 197 ft / 60 m 11,459 ft / 3,493 m 52.87° 51.81° Asphalt 0 ft / 0 m 0 ft / 0 m
09 148 ft / 45 m 11,442 ft / 3,487 m 91.75° 90.69° Asphalt 0 ft / 0 m 1,017 ft / 310 m
23 197 ft / 60 m 11,459 ft / 3,493 m 232.89° 231.83° Asphalt 0 ft / 0 m 0 ft / 0 m
27 148 ft / 45 m 11,442 ft / 3,487 m 271.78° 270.72° Asphalt 0 ft / 0 m 0 ft / 0 m

DAOB

Details ICAO DAOB (TID)
Name BOU CHEKIF
Region Algeria
Timezone Africa/Algiers (UTC+1.0)
Stats Elevation 3,245 ft / 989 m (AMSL)
Location 35.341136° 1.463147°
Runways 1
Magnetic Variation 0.635° E

METAR

DAOB 110700Z 21026KT 9999 FEW026 SCT093 08/01 Q1008

Decode

TAF

TAF DAOB 110500Z 1106/1206 24020KT 9999 FEW023 SCT100 TEMPO 1108/1116 5000 DRSA PROB40 TEMPO 1110/1114 24020G30KT 1500 BLSA BECMG 1117/1121 24010KT FEW026CB PROB40 TEMPO 1120/1206 24015G25KT 5000 -TSRA FEW026CB

Decode

Destination Runways

ID Width Length Bearing (true) Bearing (mag) Surface Threshold Offset Overrun Length
08 148 ft / 45 m 9,810 ft / 2,990 m 81.23° 80.59° Asphalt 0 ft / 0 m 198 ft / 60 m
26 148 ft / 45 m 9,810 ft / 2,990 m 261.25° 260.61° Asphalt 0 ft / 0 m 198 ft / 60 m

Popular Alternatives